Pagrindinis puslapis
METAR-TAF:

METAR-TAF

Oro uostai :

Kerteh, Malaizija

platuma: 04-32-15N, ilguma: 103-25-36E, Aukštis: 5 m

Dabartinis oras

Ataskaita buvo paskelbta 38 minutes, ne 21:00 UTC
Vėjas 1 kt nuo kintamojo kryptimis
Temperatūra 24°C
Drėgmė 100%
Slėgis 1008 hPa

METAR: WMKE 222100Z AUTO VRB01KT //// // ////// 24/24 Q1008

Laikas: 05:38 (21:38 UTC)

Prognozė

Ataskaita buvo paskelbta 4 valandos ir 38 minutes, ne 17:00 UTC
Prognozė galioja nuo 22 metu 18 UTC su 23 metu 18 UTC
Vėjas 3 kt nuo kintamojo kryptimis
Matomumas 10 km arba daugiau
Mažai debesys ne aukštis 1500 ft
Tapsmas
nuo 23 metu 00 UTC su 23 metu 02 UTC
Vėjas 6 kt iš Šiaurės
Mažai debesys ne aukštis 1400 ft
Tapsmas
nuo 23 metu 08 UTC su 23 metu 10 UTC
Mažai debesys ne aukštis 1400 ft, Liūtiniai kamuoliniai debesys.
Tapsmas
nuo 23 metu 13 UTC su 23 metu 14 UTC
Vėjas 3 kt nuo kintamojo kryptimis
Mažai debesys ne aukštis 1500 ft

TAF: WMKE 221700Z 2218/2318 VRB03KT 9999 FEW015 BECMG 2300/2302 36006KT FEW014 BECMG 2308/2310 FEW014CB BECMG 2313/2314 VRB03KT FEW015

Orai ataskaitas ir orų prognozės (METAR, TAF).

turimą stotys yra geltonos ir raudonos taškus žemėlapyje.

Perkelti pele per norėdami pamatyti stoties vardą.

Tada spustelėkite, norėdami matyti oro stebėjimo ir prognozės.

Norėdami pakeisti žemėlapį: spustelėkite ant žalios mygtukų su juodo kryžiaus žemyn,; žalią mygtuką su brūkšneliu, jei norite nutolinti; arba žalių rodyklių gretimoms žemėlapius.


METAR-TAF: